Time;durP1;ratioP1;P1;durP2;ratioP2;P2;SDS_P1;SDS_P2;PMS_P1;PMS_P2;Temp;Humidity;BMP_temperature;BMP_pressure;BME280_temperature;BME280_humidity;BME280_pressure;Samples;Min_cycle;Max_cycle;Signal;HPM_P1;HPM_P2
2023/07/27 00:00:28;;;;;;;7.25;4.20;;;13.70;99.90;;;;;;5122351;27;20035;-71
2023/07/27 00:02:54;;;;;;;5.65;4.57;;;13.80;99.90;;;;;;5119912;27;20433;-71
2023/07/27 00:05:19;;;;;;;5.65;4.30;;;13.80;99.90;;;;;;5123984;27;20095;-71
2023/07/27 00:07:45;;;;;;;5.50;4.22;;;13.80;99.90;;;;;;5123774;27;20069;-70
2023/07/27 00:10:11;;;;;;;6.82;4.50;;;13.80;99.90;;;;;;5122609;27;20409;-71
2023/07/27 00:12:36;;;;;;;7.90;4.30;;;13.80;99.90;;;;;;5125623;27;20499;-71
2023/07/27 00:15:02;;;;;;;6.82;4.03;;;13.80;99.90;;;;;;5121210;27;20051;-71
2023/07/27 00:17:28;;;;;;;6.20;4.30;;;13.80;99.90;;;;;;5124909;27;20087;-71
2023/07/27 00:19:54;;;;;;;6.65;4.25;;;13.80;99.90;;;;;;5107076;27;20047;-71
2023/07/27 00:22:20;;;;;;;6.00;3.80;;;13.80;99.90;;;;;;5131537;27;20031;-71
2023/07/27 00:24:45;;;;;;;4.40;3.83;;;13.80;99.90;;;;;;5109668;27;20069;-71
2023/07/27 00:27:11;;;;;;;6.75;4.32;;;13.80;99.90;;;;;;5130887;27;20469;-71
2023/07/27 00:29:37;;;;;;;5.45;3.85;;;13.80;99.90;;;;;;5108354;27;20039;-71
2023/07/27 00:32:02;;;;;;;6.45;4.50;;;13.90;99.90;;;;;;5126063;27;20556;-71
2023/07/27 00:34:28;;;;;;;6.95;4.22;;;13.90;99.90;;;;;;5128423;27;20034;-71
2023/07/27 00:36:54;;;;;;;4.93;3.70;;;13.90;99.90;;;;;;5123504;27;20125;-71
2023/07/27 00:39:20;;;;;;;6.07;4.10;;;13.90;99.90;;;;;;5125515;27;20042;-71
2023/07/27 00:41:45;;;;;;;7.10;4.00;;;13.90;99.90;;;;;;5122871;27;20034;-70
2023/07/27 00:44:11;;;;;;;6.65;4.82;;;13.90;99.90;;;;;;5124883;27;20031;-71
2023/07/27 00:46:37;;;;;;;7.43;4.60;;;13.90;99.90;;;;;;5123133;27;20031;-70
2023/07/27 00:49:07;;;;;;;5.80;4.20;;;14.00;99.90;;;;;;5107011;27;20130;-71
2023/07/27 00:51:35;;;;;;;5.78;3.92;;;14.00;99.90;;;;;;5131049;27;20043;-70
2023/07/27 00:54:03;;;;;;;6.85;4.18;;;14.00;99.90;;;;;;5121949;27;20058;-71
2023/07/27 00:56:30;;;;;;;6.53;4.60;;;14.00;99.90;;;;;;5105940;27;20047;-70
2023/07/27 00:59:00;;;;;;;5.22;4.07;;;14.00;99.90;;;;;;5125807;27;20096;-71
2023/07/27 01:01:26;;;;;;;6.75;4.57;;;14.00;99.90;;;;;;5125925;27;20176;-71
2023/07/27 01:03:53;;;;;;;7.47;4.97;;;14.10;99.90;;;;;;5124004;27;20126;-71
2023/07/27 01:06:19;;;;;;;8.18;4.50;;;14.10;99.90;;;;;;5128127;27;20042;-71
2023/07/27 01:08:46;;;;;;;4.90;4.00;;;14.10;99.90;;;;;;5121836;27;20043;-71
2023/07/27 01:11:35;;;;;;;6.25;4.70;;;14.10;99.90;;;;;;5113237;27;20097;-71
2023/07/27 01:14:22;;;;;;;6.88;4.43;;;14.10;99.90;;;;;;5120043;27;20089;-71
2023/07/27 01:17:09;;;;;;;5.93;4.65;;;14.10;99.90;;;;;;5119140;27;20031;-71
2023/07/27 01:19:53;;;;;;;6.82;4.80;;;14.10;99.90;;;;;;5123441;27;20069;-70
2023/07/27 01:22:31;;;;;;;6.07;4.53;;;14.10;99.90;;;;;;5106870;27;20031;-71
2023/07/27 01:25:03;;;;;;;8.00;4.40;;;14.00;99.90;;;;;;5111279;27;20052;-71
2023/07/27 01:28:07;;;;;;;7.07;4.22;;;14.10;99.90;;;;;;5118107;27;20035;-71
2023/07/27 01:30:54;;;;;;;9.27;4.65;;;14.10;99.90;;;;;;5045637;28;20044;-71
2023/07/27 01:33:33;;;;;;;5.95;4.72;;;14.00;99.90;;;;;;5043368;28;20427;-70
2023/07/27 01:36:15;;;;;;;8.13;5.00;;;14.00;99.90;;;;;;5043339;28;20044;-71
2023/07/27 01:38:43;;;;;;;8.02;4.60;;;14.00;99.90;;;;;;5045530;28;20123;-71
2023/07/27 01:41:11;;;;;;;8.18;5.00;;;14.00;99.90;;;;;;5048884;28;20186;-70
2023/07/27 01:43:39;;;;;;;6.07;4.45;;;14.00;99.90;;;;;;5044702;28;20547;-71
2023/07/27 01:46:07;;;;;;;6.43;4.65;;;14.00;99.90;;;;;;5065203;28;20059;-71
2023/07/27 01:48:35;;;;;;;6.30;4.47;;;14.00;99.90;;;;;;5045898;28;20048;-71
2023/07/27 01:51:02;;;;;;;9.00;4.93;;;14.00;99.90;;;;;;5044289;28;20067;-70
2023/07/27 01:53:29;;;;;;;7.40;4.88;;;14.00;99.90;;;;;;5041877;28;20099;-71
2023/07/27 01:55:55;;;;;;;6.57;5.22;;;14.00;99.90;;;;;;5043986;28;20530;-71
2023/07/27 01:58:23;;;;;;;7.80;5.65;;;13.90;99.90;;;;;;5040787;28;20044;-71
2023/07/27 02:00:49;;;;;;;5.85;4.85;;;13.90;99.90;;;;;;5043201;28;20047;-71
2023/07/27 02:03:16;;;;;;;7.22;4.93;;;14.00;99.90;;;;;;5027311;28;20092;-71
2023/07/27 02:05:41;;;;;;;7.57;5.55;;;13.90;99.90;;;;;;5121972;27;20363;-71
2023/07/27 02:08:07;;;;;;;5.72;5.07;;;14.00;99.90;;;;;;5124751;27;20046;-71
2023/07/27 02:10:34;;;;;;;6.93;4.82;;;14.00;99.90;;;;;;5116731;27;20070;-70
2023/07/27 02:13:16;;;;;;;7.35;5.60;;;14.00;99.90;;;;;;5106131;27;20478;-71
2023/07/27 02:15:50;;;;;;;6.85;4.70;;;14.00;99.90;;;;;;5105544;27;20043;-71
2023/07/27 02:18:18;;;;;;;6.90;5.10;;;14.00;99.90;;;;;;5102591;27;20047;-71
2023/07/27 02:20:46;;;;;;;7.47;5.13;;;14.00;99.90;;;;;;5111952;27;20512;-71
2023/07/27 02:23:13;;;;;;;7.55;5.40;;;14.00;99.90;;;;;;5099200;27;20051;-71
2023/07/27 02:25:39;;;;;;;7.45;4.88;;;14.00;99.90;;;;;;5118812;27;20050;-71
2023/07/27 02:28:04;;;;;;;5.80;4.82;;;14.00;99.90;;;;;;5105562;28;20078;-71
2023/07/27 02:30:30;;;;;;;7.50;5.60;;;14.00;99.90;;;;;;5101630;27;20079;-70
2023/07/27 02:32:56;;;;;;;6.65;5.15;;;14.00;99.90;;;;;;5112782;27;20035;-70
2023/07/27 02:35:21;;;;;;;6.47;5.13;;;14.00;99.90;;;;;;5115678;27;20492;-70
2023/07/27 02:37:47;;;;;;;7.03;4.88;;;14.00;99.90;;;;;;5113963;27;20039;-71
2023/07/27 02:40:13;;;;;;;7.63;5.25;;;14.00;99.90;;;;;;5104591;27;20032;-71
2023/07/27 02:42:38;;;;;;;7.30;5.05;;;14.00;99.90;;;;;;5090735;28;20044;-71
2023/07/27 02:45:04;;;;;;;7.13;5.70;;;14.00;99.90;;;;;;5096957;27;20047;-71
2023/07/27 02:47:30;;;;;;;8.93;6.18;;;13.90;99.90;;;;;;5102437;27;20051;-71
2023/07/27 02:49:55;;;;;;;7.70;6.05;;;14.00;99.90;;;;;;5115417;27;20062;-71
2023/07/27 02:52:21;;;;;;;7.60;5.80;;;13.90;99.90;;;;;;5111645;27;20039;-71
2023/07/27 02:54:47;;;;;;;9.43;6.30;;;13.90;99.90;;;;;;5104691;28;20043;-70
2023/07/27 02:57:12;;;;;;;7.65;6.32;;;13.90;99.90;;;;;;5105520;27;20035;-70
2023/07/27 02:59:38;;;;;;;8.60;5.90;;;13.80;99.90;;;;;;5114318;28;20035;-70
2023/07/27 03:02:04;;;;;;;7.93;6.15;;;13.80;99.90;;;;;;5112157;28;20479;-70
2023/07/27 03:04:30;;;;;;;9.85;6.45;;;13.80;99.90;;;;;;5110315;28;20539;-70
2023/07/27 03:06:55;;;;;;;8.52;5.90;;;13.80;99.90;;;;;;5115967;28;20165;-70
2023/07/27 03:09:21;;;;;;;9.05;6.72;;;13.80;99.90;;;;;;5109591;27;20070;-70
2023/07/27 03:11:49;;;;;;;9.95;6.60;;;13.80;99.90;;;;;;5122550;27;20473;-70
2023/07/27 03:14:15;;;;;;;9.07;6.30;;;13.80;99.90;;;;;;5124320;27;20508;-70
2023/07/27 03:16:40;;;;;;;9.50;5.97;;;13.70;99.90;;;;;;5124477;27;20035;-70
2023/07/27 03:19:06;;;;;;;8.20;6.40;;;13.70;99.90;;;;;;5122488;27;20031;-71
2023/07/27 03:21:32;;;;;;;10.23;6.85;;;13.70;99.90;;;;;;5130304;27;20743;-70
2023/07/27 03:23:57;;;;;;;9.82;7.20;;;13.70;99.90;;;;;;5127162;27;20046;-71
2023/07/27 03:26:23;;;;;;;9.80;6.68;;;13.70;99.90;;;;;;5125745;27;20053;-70
2023/07/27 03:28:49;;;;;;;8.63;6.60;;;13.70;99.90;;;;;;5111918;27;20035;-70
2023/07/27 03:31:19;;;;;;;8.32;6.45;;;13.70;99.90;;;;;;5121081;27;20036;-70
2023/07/27 03:33:45;;;;;;;9.88;6.15;;;13.60;99.90;;;;;;5126991;27;20563;-70
2023/07/27 03:36:11;;;;;;;7.68;6.47;;;13.60;99.90;;;;;;5126316;27;20058;-70
2023/07/27 03:38:36;;;;;;;9.02;6.20;;;13.60;99.90;;;;;;5131227;27;20042;-70
2023/07/27 03:41:02;;;;;;;9.25;6.70;;;13.60;99.90;;;;;;5130247;27;20051;-71
2023/07/27 03:43:28;;;;;;;8.07;6.68;;;13.60;99.90;;;;;;5126898;27;20074;-70
2023/07/27 03:45:53;;;;;;;8.48;6.53;;;13.60;99.90;;;;;;5125124;27;20047;-70
2023/07/27 03:48:19;;;;;;;8.40;6.60;;;13.60;99.90;;;;;;5131911;27;20035;-70
2023/07/27 03:50:45;;;;;;;8.55;6.82;;;13.60;99.90;;;;;;5125098;27;20431;-70
2023/07/27 03:53:11;;;;;;;8.15;6.43;;;13.60;99.90;;;;;;5133545;27;20385;-70
2023/07/27 03:55:37;;;;;;;9.70;6.80;;;13.60;99.90;;;;;;5125153;27;20043;-70
2023/07/27 03:58:02;;;;;;;8.05;6.32;;;13.60;99.90;;;;;;5124533;27;20043;-70
2023/07/27 04:00:28;;;;;;;10.05;6.78;;;13.50;99.90;;;;;;5126608;27;20035;-70
2023/07/27 04:02:53;;;;;;;8.55;7.00;;;13.50;99.90;;;;;;5124415;27;20201;-70
2023/07/27 04:05:19;;;;;;;8.48;6.60;;;13.50;99.90;;;;;;5122654;27;20042;-71
2023/07/27 04:07:49;;;;;;;9.23;7.10;;;13.50;99.90;;;;;;5111874;27;20146;-70
2023/07/27 04:10:15;;;;;;;10.65;7.20;;;13.50;99.90;;;;;;5127772;27;20047;-70
2023/07/27 04:12:41;;;;;;;9.15;6.90;;;13.50;99.90;;;;;;5111984;27;20129;-70
2023/07/27 04:15:07;;;;;;;9.15;7.03;;;13.60;99.90;;;;;;5127946;27;20043;-70
2023/07/27 04:17:32;;;;;;;9.18;6.95;;;13.50;99.90;;;;;;5125863;27;20072;-70
2023/07/27 04:19:58;;;;;;;9.52;6.63;;;13.60;99.90;;;;;;5126639;27;20404;-70
2023/07/27 04:22:24;;;;;;;9.20;6.35;;;13.60;99.90;;;;;;5129981;27;20043;-70
2023/07/27 04:24:50;;;;;;;8.23;6.43;;;13.60;99.90;;;;;;5126890;27;20035;-70
2023/07/27 04:27:15;;;;;;;8.43;6.65;;;13.60;99.90;;;;;;5115047;27;20117;-71
2023/07/27 04:29:41;;;;;;;7.40;6.10;;;13.60;99.90;;;;;;5126220;27;20118;-70
2023/07/27 04:32:07;;;;;;;9.73;6.53;;;13.60;99.90;;;;;;5122892;27;20390;-70
2023/07/27 04:34:33;;;;;;;7.60;6.18;;;13.60;99.90;;;;;;5123785;27;20046;-70
2023/07/27 04:36:59;;;;;;;8.35;6.60;;;13.60;99.90;;;;;;5126452;27;20057;-70
2023/07/27 04:39:24;;;;;;;9.23;6.32;;;13.60;99.90;;;;;;5107263;27;20449;-70
2023/07/27 04:41:50;;;;;;;7.85;6.00;;;13.60;99.90;;;;;;5121425;27;20031;-71
2023/07/27 04:44:15;;;;;;;8.30;6.40;;;13.60;99.90;;;;;;5127172;27;20171;-70
2023/07/27 04:46:41;;;;;;;7.38;6.00;;;13.60;99.90;;;;;;5124352;27;20039;-70
2023/07/27 04:49:07;;;;;;;9.10;6.18;;;13.60;99.90;;;;;;5127424;27;20050;-70
2023/07/27 04:51:33;;;;;;;6.97;5.70;;;13.60;99.90;;;;;;5099179;27;20066;-71
2023/07/27 04:53:59;;;;;;;7.40;5.68;;;13.60;99.90;;;;;;5118215;27;20038;-70
2023/07/27 04:56:24;;;;;;;5.88;5.28;;;13.60;99.90;;;;;;5123796;27;20031;-71
2023/07/27 04:58:50;;;;;;;6.60;5.70;;;13.60;99.90;;;;;;5119369;27;20062;-70
2023/07/27 05:01:16;;;;;;;9.05;5.65;;;13.60;99.90;;;;;;5120897;27;20037;-70
2023/07/27 05:03:41;;;;;;;8.70;5.90;;;13.60;99.90;;;;;;5125650;27;20109;-70
2023/07/27 05:06:07;;;;;;;7.07;5.30;;;13.60;99.90;;;;;;5124442;27;20051;-70
2023/07/27 05:08:32;;;;;;;6.18;5.03;;;13.60;99.90;;;;;;5124801;27;20053;-70
2023/07/27 05:10:58;;;;;;;7.85;5.43;;;13.60;99.90;;;;;;5124114;27;20050;-70
2023/07/27 05:13:24;;;;;;;6.20;5.28;;;13.70;99.90;;;;;;5123802;27;20039;-70
2023/07/27 05:15:50;;;;;;;6.15;5.18;;;13.70;99.90;;;;;;5128844;27;20047;-70
2023/07/27 05:18:15;;;;;;;6.80;5.22;;;13.70;99.90;;;;;;5106258;27;20069;-70
2023/07/27 05:20:42;;;;;;;7.70;5.35;;;13.70;99.90;;;;;;5132729;27;20039;-70
2023/07/27 05:23:08;;;;;;;8.75;5.80;;;13.70;99.90;;;;;;5125805;27;20035;-71
2023/07/27 05:25:33;;;;;;;7.63;5.53;;;13.70;99.90;;;;;;5112881;27;20607;-72
2023/07/27 05:27:59;;;;;;;7.03;5.07;;;13.70;99.90;;;;;;5127219;27;20455;-70
2023/07/27 05:30:24;;;;;;;7.25;5.72;;;13.70;99.90;;;;;;5129243;27;20473;-70
2023/07/27 05:32:50;;;;;;;8.10;5.97;;;13.70;99.90;;;;;;5132879;27;20055;-70
2023/07/27 05:35:16;;;;;;;7.43;6.32;;;13.70;99.90;;;;;;5127556;27;20071;-70
2023/07/27 05:37:46;;;;;;;8.40;6.63;;;13.70;99.90;;;;;;5119242;27;20043;-71
2023/07/27 05:40:14;;;;;;;9.45;6.88;;;13.70;99.90;;;;;;5123471;27;20119;-69
2023/07/27 05:42:40;;;;;;;9.45;6.40;;;13.80;99.90;;;;;;5121115;27;20066;-71
2023/07/27 05:45:06;;;;;;;10.65;6.68;;;13.80;99.90;;;;;;5121136;27;20508;-71
2023/07/27 05:47:32;;;;;;;9.27;7.03;;;13.80;99.90;;;;;;5123571;27;20087;-69
2023/07/27 05:49:58;;;;;;;9.65;7.45;;;13.80;99.90;;;;;;5108784;27;20039;-69
2023/07/27 05:52:24;;;;;;;8.48;6.65;;;13.80;99.90;;;;;;5121498;27;20045;-70
2023/07/27 05:54:50;;;;;;;8.52;7.10;;;13.80;99.90;;;;;;5124021;27;20042;-69
2023/07/27 05:57:16;;;;;;;9.88;7.63;;;13.90;99.90;;;;;;5114644;27;20031;-69
2023/07/27 05:59:41;;;;;;;9.65;7.35;;;13.80;99.90;;;;;;5113724;27;20030;-70
2023/07/27 06:02:07;;;;;;;10.07;7.82;;;13.80;99.90;;;;;;5129959;27;20066;-69
2023/07/27 06:04:32;;;;;;;8.82;7.63;;;13.80;99.90;;;;;;5131971;27;20038;-70
2023/07/27 06:06:58;;;;;;;10.43;7.75;;;13.80;99.90;;;;;;5131111;27;20042;-68
2023/07/27 06:09:24;;;;;;;10.75;7.85;;;13.90;99.90;;;;;;5130042;27;20043;-69
2023/07/27 06:11:51;;;;;;;11.55;8.50;;;13.80;99.90;;;;;;5125770;27;20038;-68
2023/07/27 06:14:17;;;;;;;12.48;8.52;;;13.90;99.90;;;;;;5134057;27;20039;-69
2023/07/27 06:16:43;;;;;;;12.88;8.43;;;13.90;99.90;;;;;;5133997;27;20039;-70
2023/07/27 06:19:08;;;;;;;12.70;8.68;;;13.90;99.90;;;;;;5134191;27;20374;-69
2023/07/27 06:21:34;;;;;;;10.25;8.32;;;13.90;99.90;;;;;;5116412;27;20078;-70
2023/07/27 06:24:00;;;;;;;11.65;8.50;;;13.90;99.90;;;;;;5133905;27;20050;-70
2023/07/27 06:26:25;;;;;;;10.90;8.20;;;13.90;99.90;;;;;;5129766;27;20367;-69
2023/07/27 06:28:51;;;;;;;12.48;8.98;;;14.00;99.90;;;;;;5134185;27;20031;-70
2023/07/27 06:31:17;;;;;;;9.88;8.15;;;14.00;99.90;;;;;;5133578;27;20438;-69
2023/07/27 06:33:43;;;;;;;13.07;9.20;;;14.00;99.90;;;;;;5134077;27;20640;-69
2023/07/27 06:36:11;;;;;;;11.38;9.15;;;14.00;99.90;;;;;;5133932;27;20071;-70
2023/07/27 06:38:38;;;;;;;11.02;9.15;;;14.00;99.90;;;;;;5133757;27;20034;-69
2023/07/27 06:41:05;;;;;;;10.63;9.25;;;14.00;99.90;;;;;;5113419;27;20043;-69
2023/07/27 06:43:30;;;;;;;11.55;9.77;;;14.10;99.90;;;;;;5103465;27;20465;-70
2023/07/27 06:45:56;;;;;;;12.52;9.88;;;14.00;99.90;;;;;;5131843;27;20095;-71
2023/07/27 06:48:22;;;;;;;10.98;9.35;;;14.10;99.90;;;;;;5113062;27;20038;-70
2023/07/27 06:50:47;;;;;;;10.43;8.98;;;14.10;99.90;;;;;;5115698;27;20047;-69
2023/07/27 06:53:13;;;;;;;12.85;9.10;;;14.10;99.90;;;;;;5133660;27;20117;-69
2023/07/27 06:55:39;;;;;;;11.52;9.40;;;14.10;99.90;;;;;;5129862;27;20039;-70
2023/07/27 06:58:04;;;;;;;11.70;9.30;;;14.10;99.90;;;;;;5132985;27;20091;-68
2023/07/27 07:00:31;;;;;;;10.10;9.00;;;14.20;99.90;;;;;;5125771;27;20118;-70
2023/07/27 07:02:58;;;;;;;11.55;9.05;;;14.10;99.90;;;;;;5113230;27;20039;-70
2023/07/27 07:05:24;;;;;;;10.30;8.45;;;14.20;99.90;;;;;;5117240;27;20045;-70
2023/07/27 07:07:49;;;;;;;9.68;8.68;;;14.20;99.90;;;;;;5126229;27;20030;-71
2023/07/27 07:10:15;;;;;;;13.20;8.77;;;14.20;99.90;;;;;;5133332;27;20055;-68
2023/07/27 07:12:41;;;;;;;8.65;7.75;;;14.20;99.90;;;;;;5121491;27;20035;-69
2023/07/27 07:15:08;;;;;;;9.15;8.13;;;14.20;99.90;;;;;;5112875;27;20043;-70
2023/07/27 07:17:33;;;;;;;9.68;7.70;;;14.20;99.90;;;;;;5112956;27;20035;-70
2023/07/27 07:19:59;;;;;;;9.90;7.57;;;14.20;99.90;;;;;;5118245;27;20034;-71
2023/07/27 07:22:25;;;;;;;8.00;7.13;;;14.20;99.90;;;;;;5133333;27;20054;-68
2023/07/27 07:24:50;;;;;;;8.32;7.07;;;14.30;99.90;;;;;;5133243;27;20054;-71
2023/07/27 07:27:16;;;;;;;7.78;7.07;;;14.30;99.90;;;;;;5133416;27;20038;-70
2023/07/27 07:29:42;;;;;;;7.45;6.53;;;14.30;99.90;;;;;;5133207;27;20053;-68
2023/07/27 07:32:07;;;;;;;7.13;6.38;;;14.30;99.90;;;;;;5115792;27;20043;-69
2023/07/27 07:34:33;;;;;;;7.03;5.97;;;14.30;99.90;;;;;;5133331;27;20503;-69
2023/07/27 07:37:00;;;;;;;6.78;6.10;;;14.30;99.90;;;;;;5123748;27;20039;-68
2023/07/27 07:39:26;;;;;;;7.03;6.07;;;14.30;99.90;;;;;;5095421;27;20050;-70
2023/07/27 07:41:52;;;;;;;6.15;5.55;;;14.30;99.90;;;;;;5125506;27;20437;-70
2023/07/27 07:44:18;;;;;;;6.18;5.57;;;14.30;99.90;;;;;;5133544;27;20103;-69
2023/07/27 07:46:43;;;;;;;6.55;5.38;;;14.30;99.90;;;;;;5133108;27;20043;-70
2023/07/27 07:49:09;;;;;;;6.63;5.00;;;14.30;99.90;;;;;;5133057;27;20552;-69
2023/07/27 07:51:35;;;;;;;5.65;5.05;;;14.30;99.90;;;;;;5132904;27;20061;-69
2023/07/27 07:54:00;;;;;;;5.43;4.93;;;14.30;99.90;;;;;;5119396;27;20043;-68
2023/07/27 07:56:26;;;;;;;6.10;4.72;;;14.30;99.90;;;;;;5095662;27;20047;-69
2023/07/27 07:58:52;;;;;;;5.40;4.55;;;14.30;99.90;;;;;;5112334;27;20096;-69
2023/07/27 08:01:17;;;;;;;6.80;4.50;;;14.30;99.90;;;;;;5112627;27;20397;-69
2023/07/27 08:03:43;;;;;;;6.88;5.18;;;14.40;99.90;;;;;;5112755;27;20103;-69
2023/07/27 08:06:12;;;;;;;5.25;4.53;;;14.30;99.90;;;;;;5098617;27;20054;-68
2023/07/27 08:08:38;;;;;;;5.10;4.50;;;14.40;99.90;;;;;;5136755;27;20438;-69
2023/07/27 08:11:04;;;;;;;5.05;4.10;;;14.40;99.90;;;;;;5136297;27;20114;-70
2023/07/27 08:13:34;;;;;;;6.30;4.10;;;14.40;99.90;;;;;;5119341;27;20038;-69
2023/07/27 08:16:00;;;;;;;5.05;3.85;;;14.40;99.90;;;;;;5136446;27;20090;-69
2023/07/27 08:18:27;;;;;;;4.22;3.83;;;14.50;99.90;;;;;;5136686;27;20489;-69
2023/07/27 08:21:01;;;;;;;4.13;3.45;;;14.50;99.90;;;;;;5136491;27;20389;-69
2023/07/27 08:23:27;;;;;;;3.40;3.10;;;14.60;99.90;;;;;;5119145;27;20125;-69
2023/07/27 08:25:53;;;;;;;3.67;3.38;;;14.70;99.90;;;;;;5136331;27;20051;-68
2023/07/27 08:28:20;;;;;;;3.80;3.40;;;14.70;99.90;;;;;;5129688;27;20501;-68
2023/07/27 08:30:47;;;;;;;3.70;3.28;;;14.80;99.90;;;;;;5115874;27;20143;-68
2023/07/27 08:33:13;;;;;;;3.50;3.13;;;14.80;99.90;;;;;;5134570;27;20035;-70
2023/07/27 08:35:39;;;;;;;4.15;3.15;;;14.80;99.90;;;;;;5136213;27;20026;-70
2023/07/27 08:38:05;;;;;;;4.28;3.53;;;14.90;99.90;;;;;;5136212;27;20497;-70
2023/07/27 08:40:30;;;;;;;3.45;2.85;;;14.90;99.90;;;;;;5119483;27;20031;-69
2023/07/27 08:42:56;;;;;;;4.57;2.70;;;14.90;99.90;;;;;;5115584;27;20043;-68
2023/07/27 08:45:22;;;;;;;2.60;2.40;;;14.90;99.90;;;;;;5115902;27;20478;-71
2023/07/27 08:47:49;;;;;;;3.00;2.70;;;14.90;99.90;;;;;;5115787;27;20039;-70
2023/07/27 08:50:15;;;;;;;3.22;2.70;;;14.90;99.90;;;;;;5098474;27;20379;-69
2023/07/27 08:52:41;;;;;;;2.60;2.40;;;15.00;99.90;;;;;;5133423;27;20064;-69
2023/07/27 08:55:07;;;;;;;3.33;2.70;;;15.00;99.90;;;;;;5118629;27;20070;-69
2023/07/27 08:57:33;;;;;;;3.00;2.60;;;15.10;99.90;;;;;;5127703;27;20067;-69
2023/07/27 08:59:59;;;;;;;2.40;2.20;;;15.20;99.90;;;;;;5115429;27;20038;-69
2023/07/27 09:02:25;;;;;;;2.78;2.47;;;15.20;99.90;;;;;;5115560;27;20035;-69
2023/07/27 09:04:50;;;;;;;2.53;2.20;;;15.30;99.90;;;;;;5115610;27;20099;-69
2023/07/27 09:07:16;;;;;;;2.35;2.15;;;15.30;99.90;;;;;;5115236;27;20031;-69
2023/07/27 09:09:49;;;;;;;2.28;2.08;;;15.40;99.90;;;;;;5114762;27;20118;-70
2023/07/27 09:12:22;;;;;;;3.00;1.90;;;15.40;99.90;;;;;;5115336;27;20042;-70
2023/07/27 09:14:47;;;;;;;2.30;1.98;;;15.50;99.90;;;;;;5115049;27;20100;-68
2023/07/27 09:17:13;;;;;;;1.90;1.60;;;15.50;99.90;;;;;;5114573;27;20035;-69
2023/07/27 09:19:41;;;;;;;1.90;1.80;;;15.50;99.90;;;;;;5114799;27;20034;-70
2023/07/27 09:22:07;;;;;;;4.50;2.15;;;15.60;99.90;;;;;;5114673;27;20039;-69
2023/07/27 09:24:34;;;;;;;2.22;2.03;;;15.60;99.90;;;;;;5115166;27;20042;-69
2023/07/27 09:27:01;;;;;;;4.35;2.28;;;15.70;99.90;;;;;;5115005;27;20509;-69
2023/07/27 09:29:27;;;;;;;2.53;2.33;;;15.70;99.90;;;;;;5125771;27;20463;-70
2023/07/27 09:31:58;;;;;;;2.20;2.00;;;15.80;99.90;;;;;;5118045;27;20073;-70
2023/07/27 09:34:28;;;;;;;2.45;2.25;;;15.80;99.90;;;;;;5118261;27;20074;-70
2023/07/27 09:37:04;;;;;;;2.30;2.10;;;15.80;99.90;;;;;;5134832;27;20039;-69
2023/07/27 09:39:33;;;;;;;3.55;2.40;;;15.90;99.90;;;;;;5135040;27;20123;-70
2023/07/27 09:41:59;;;;;;;2.75;2.55;;;16.00;99.90;;;;;;5142735;27;20066;-69
2023/07/27 09:44:24;;;;;;;3.05;2.60;;;16.00;99.90;;;;;;5114491;27;20119;-69
2023/07/27 09:46:50;;;;;;;3.35;2.55;;;16.10;99.90;;;;;;5114536;27;20038;-69
2023/07/27 09:49:17;;;;;;;3.10;2.83;;;16.10;99.90;;;;;;5114521;27;20449;-70
2023/07/27 09:51:46;;;;;;;3.00;2.80;;;16.20;99.90;;;;;;5114344;27;20091;-71
2023/07/27 09:54:13;;;;;;;3.10;2.80;;;16.30;99.90;;;;;;5114211;27;20110;-70
2023/07/27 09:56:39;;;;;;;2.95;2.75;;;16.40;99.90;;;;;;5114247;27;20386;-70
2023/07/27 09:59:06;;;;;;;3.13;2.92;;;16.50;99.90;;;;;;5114061;27;20035;-69
2023/07/27 10:01:33;;;;;;;2.70;2.50;;;16.60;99.90;;;;;;5114109;27;20095;-70
2023/07/27 10:03:58;;;;;;;3.03;2.67;;;16.60;99.90;;;;;;5114083;27;20032;-69
2023/07/27 10:06:29;;;;;;;2.85;2.65;;;16.70;99.90;;;;;;5114075;27;20047;-69
2023/07/27 10:08:55;;;;;;;3.20;2.90;;;16.70;99.90;;;;;;5114035;27;20043;-69
2023/07/27 10:11:32;;;;;;;3.08;2.70;;;16.80;99.90;;;;;;5114069;27;20134;-70
2023/07/27 10:14:16;;;;;;;2.70;2.40;;;16.80;99.90;;;;;;5113795;27;20043;-69
2023/07/27 10:17:00;;;;;;;2.95;2.75;;;16.80;99.90;;;;;;5113984;27;20054;-70
2023/07/27 10:19:39;;;;;;;3.05;2.83;;;16.80;99.90;;;;;;5127608;27;20034;-69
2023/07/27 10:22:13;;;;;;;3.75;3.45;;;16.80;99.90;;;;;;5134191;27;20126;-69
2023/07/27 10:24:53;;;;;;;3.53;3.33;;;16.70;99.90;;;;;;5127718;27;20118;-70
2023/07/27 10:27:20;;;;;;;5.35;3.60;;;16.70;99.90;;;;;;5113778;27;20490;-70
2023/07/27 10:29:48;;;;;;;4.05;3.60;;;16.70;99.90;;;;;;5124579;27;20094;-70
2023/07/27 10:32:14;;;;;;;4.30;4.00;;;16.70;99.90;;;;;;5134030;27;20053;-70
2023/07/27 10:34:40;;;;;;;4.13;3.83;;;16.60;99.90;;;;;;5134208;27;20512;-70
2023/07/27 10:37:08;;;;;;;4.63;4.22;;;16.70;99.90;;;;;;5133858;27;20034;-70
2023/07/27 10:39:35;;;;;;;5.20;4.80;;;16.70;99.90;;;;;;5134001;27;20038;-69
2023/07/27 10:42:04;;;;;;;5.05;4.55;;;16.70;99.90;;;;;;5134270;27;20062;-69
2023/07/27 10:44:44;;;;;;;4.60;4.30;;;16.70;99.90;;;;;;5133880;27;20054;-69
2023/07/27 10:47:22;;;;;;;4.80;4.40;;;16.80;99.90;;;;;;5134159;27;20037;-71
2023/07/27 10:49:49;;;;;;;5.80;5.30;;;16.80;99.90;;;;;;5122287;27;20039;-70
2023/07/27 10:52:39;;;;;;;5.40;5.00;;;16.80;99.90;;;;;;5113194;27;20039;-71
2023/07/27 10:55:06;;;;;;;5.53;5.07;;;16.80;99.90;;;;;;5131049;27;20039;-70
2023/07/27 10:57:33;;;;;;;4.93;4.53;;;16.80;99.90;;;;;;5133954;27;20031;-70
2023/07/27 11:00:00;;;;;;;5.53;5.07;;;16.90;99.90;;;;;;5116869;27;20035;-70
2023/07/27 11:02:32;;;;;;;5.57;5.18;;;17.00;99.90;;;;;;5113574;28;20027;-71
2023/07/27 11:05:05;;;;;;;5.25;4.85;;;17.00;99.90;;;;;;5113391;28;20046;-70
2023/07/27 11:07:36;;;;;;;5.15;4.72;;;17.10;99.90;;;;;;5113580;28;20481;-70
2023/07/27 11:10:10;;;;;;;5.45;4.95;;;17.20;99.90;;;;;;5113099;28;20078;-70
2023/07/27 11:12:54;;;;;;;5.07;4.68;;;17.30;99.90;;;;;;5095945;27;20046;-69
2023/07/27 11:15:22;;;;;;;5.13;4.60;;;17.40;99.90;;;;;;5112771;27;20043;-69
2023/07/27 11:17:49;;;;;;;4.43;4.13;;;17.40;99.90;;;;;;5112953;27;20457;-70
2023/07/27 11:20:18;;;;;;;5.53;4.10;;;17.50;99.90;;;;;;5122936;27;20064;-69
2023/07/27 11:22:45;;;;;;;4.75;3.88;;;17.60;99.90;;;;;;5127943;27;20035;-69
2023/07/27 11:25:12;;;;;;;4.53;4.13;;;17.60;99.90;;;;;;5112648;27;20035;-70
2023/07/27 11:27:38;;;;;;;4.10;3.80;;;17.70;99.90;;;;;;5112889;27;20050;-71
2023/07/27 11:30:12;;;;;;;3.83;3.53;;;17.90;99.90;;;;;;5112909;28;20031;-70
2023/07/27 11:32:38;;;;;;;3.95;3.65;;;17.90;99.90;;;;;;5112983;27;20038;-70
2023/07/27 11:35:04;;;;;;;3.97;3.67;;;17.90;99.90;;;;;;5133595;27;20481;-69
2023/07/27 11:37:31;;;;;;;3.70;3.40;;;18.00;99.90;;;;;;5133473;27;20034;-70
2023/07/27 11:39:57;;;;;;;3.17;2.97;;;18.00;99.90;;;;;;5134482;27;20089;-70
2023/07/27 11:42:34;;;;;;;3.70;3.50;;;18.10;99.90;;;;;;5137277;27;20134;-71
2023/07/27 11:45:00;;;;;;;3.30;3.00;;;18.10;99.90;;;;;;5137762;27;20416;-69
2023/07/27 11:47:26;;;;;;;3.40;3.10;;;18.10;99.90;;;;;;5137138;27;20043;-69
2023/07/27 11:49:55;;;;;;;3.97;3.67;;;18.10;99.90;;;;;;5137421;27;20584;-69
2023/07/27 11:52:20;;;;;;;3.53;3.33;;;18.00;99.90;;;;;;5155667;27;20042;-70
2023/07/27 11:54:51;;;;;;;3.90;3.60;;;18.00;99.90;;;;;;5137175;27;20045;-70
2023/07/27 11:57:18;;;;;;;3.95;3.72;;;18.00;99.90;;;;;;5136978;27;20035;-69
2023/07/27 12:00:14;;;;;;;4.47;3.72;;;18.00;99.90;;;;;;5137014;27;20051;-70
2023/07/27 12:02:48;;;;;;;4.57;4.28;;;18.00;99.90;;;;;;5136954;27;20037;-70
2023/07/27 12:05:15;;;;;;;4.35;4.05;;;18.00;99.90;;;;;;5137539;27;20504;-69
2023/07/27 12:07:42;;;;;;;4.57;4.03;;;17.90;99.90;;;;;;5137035;27;20044;-68
2023/07/27 12:10:12;;;;;;;4.15;3.80;;;17.90;99.90;;;;;;5125479;27;20498;-69
2023/07/27 12:12:59;;;;;;;3.83;3.45;;;17.90;99.90;;;;;;5116152;27;20139;-68
2023/07/27 12:15:30;;;;;;;3.97;3.67;;;17.80;99.90;;;;;;5116484;27;20046;-70
2023/07/27 12:17:57;;;;;;;3.72;3.42;;;17.80;99.90;;;;;;5136619;27;20034;-68
2023/07/27 12:20:27;;;;;;;3.30;3.10;;;17.80;99.90;;;;;;5136622;27;20038;-70
2023/07/27 12:22:52;;;;;;;3.80;3.50;;;17.80;99.90;;;;;;5136954;27;20047;-70
2023/07/27 12:25:19;;;;;;;3.42;3.20;;;17.70;99.90;;;;;;5136536;27;20031;-69
2023/07/27 12:27:45;;;;;;;5.28;3.60;;;17.70;99.90;;;;;;5136229;27;20043;-70
2023/07/27 12:30:11;;;;;;;4.10;3.70;;;17.80;99.90;;;;;;5136600;27;20043;-70
2023/07/27 12:32:37;;;;;;;4.35;4.00;;;17.80;99.90;;;;;;5154960;27;20038;-69
2023/07/27 12:35:04;;;;;;;5.75;4.82;;;17.90;99.90;;;;;;5117775;27;20130;-70
2023/07/27 12:37:33;;;;;;;4.60;4.20;;;17.90;99.90;;;;;;5103841;27;20450;-68
2023/07/27 12:39:58;;;;;;;5.00;4.60;;;18.00;99.90;;;;;;5131382;27;20046;-68
2023/07/27 12:42:24;;;;;;;5.20;4.80;;;18.00;99.90;;;;;;5115711;27;20035;-68
2023/07/27 12:44:51;;;;;;;4.93;4.53;;;18.00;99.90;;;;;;5115796;27;20035;-69
2023/07/27 12:47:16;;;;;;;4.78;4.38;;;18.10;99.90;;;;;;5115468;27;20050;-68